createdAt,value
2018-08-13T00:00:55.122Z,98.71
2018-08-13T00:01:55.163Z,98.61
2018-08-13T00:02:55.202Z,98.52
2018-08-13T00:03:55.238Z,98.52
2018-08-13T00:04:55.277Z,98.13
2018-08-13T00:05:55.315Z,97.61
2018-08-13T00:06:55.355Z,97.75
2018-08-13T00:07:55.394Z,98.37
2018-08-13T00:08:55.434Z,97.42
2018-08-13T00:09:55.472Z,97.80
2018-08-13T00:10:55.514Z,96.56
2018-08-13T00:11:55.549Z,96.56
2018-08-13T00:12:55.587Z,96.84
2018-08-13T00:13:55.626Z,96.84
2018-08-13T00:14:55.664Z,97.61
2018-08-13T00:15:55.703Z,97.32
2018-08-13T00:16:55.742Z,97.03
2018-08-13T00:17:55.782Z,96.84
2018-08-13T00:18:55.820Z,97.03
2018-08-13T00:19:55.856Z,97.03
2018-08-13T00:20:55.898Z,96.84
2018-08-13T00:21:55.946Z,97.23
2018-08-13T00:22:55.975Z,97.13
2018-08-13T00:23:56.015Z,96.84
2018-08-13T00:24:56.055Z,96.84
2018-08-13T00:25:56.092Z,96.66
2018-08-13T00:26:56.128Z,96.84
2018-08-13T00:27:56.167Z,96.37
2018-08-13T00:28:56.216Z,96.84
2018-08-13T00:29:56.247Z,96.56
2018-08-13T00:30:56.283Z,96.84
2018-08-13T00:31:56.321Z,96.27
2018-08-13T00:32:56.360Z,96.66
2018-08-13T00:33:56.399Z,96.56
2018-08-13T00:34:56.438Z,96.37
2018-08-13T00:35:56.476Z,96.84
2018-08-13T00:36:56.518Z,95.75
2018-08-13T00:37:56.569Z,96.46
2018-08-13T00:38:56.591Z,95.65
2018-08-13T00:39:56.630Z,96.13
2018-08-13T00:40:56.671Z,96.61
2018-08-13T00:41:56.717Z,96.22
2018-08-13T00:42:56.748Z,95.98
2018-08-13T00:43:56.784Z,96.32
2018-08-13T00:44:56.822Z,95.84
2018-08-13T00:45:56.872Z,95.84
2018-08-13T00:46:56.902Z,96.08
2018-08-13T00:47:56.940Z,95.36
2018-08-13T00:48:56.978Z,95.79
2018-08-13T00:49:57.019Z,95.94
2018-08-13T00:50:57.055Z,95.36
2018-08-13T00:51:57.094Z,95.36
2018-08-13T00:52:57.135Z,95.46
2018-08-13T00:53:57.172Z,95.46
2018-08-13T00:54:57.208Z,95.36
2018-08-13T00:55:57.255Z,96.22
2018-08-13T00:56:57.304Z,95.75
2018-08-13T00:57:57.324Z,95.65
2018-08-13T00:58:57.362Z,95.75
2018-08-13T00:59:57.400Z,96.32
2018-08-13T01:00:57.441Z,96.13
2018-08-13T01:01:57.479Z,96.32
2018-08-13T01:02:57.518Z,96.61
2018-08-13T01:03:57.553Z,96.98
2018-08-13T01:04:57.592Z,97.23
2018-08-13T01:05:57.634Z,96.51
2018-08-13T01:06:57.671Z,96.66
2018-08-13T01:07:57.708Z,96.80
2018-08-13T01:08:57.746Z,96.51
2018-08-13T01:09:57.784Z,96.22
2018-08-13T01:10:57.826Z,96.03
2018-08-13T01:11:57.862Z,96.03
2018-08-13T01:12:57.902Z,95.94
2018-08-13T01:13:57.946Z,95.36
2018-08-13T01:14:57.976Z,95.56
2018-08-13T01:15:58.015Z,95.27
2018-08-13T01:16:58.062Z,95.36
2018-08-13T01:17:58.095Z,95.17
2018-08-13T01:18:58.132Z,95.27
2018-08-13T01:19:58.168Z,94.60
2018-08-13T01:20:58.208Z,94.60
2018-08-13T01:21:58.248Z,94.51
2018-08-13T01:22:58.284Z,94.22
2018-08-13T01:23:58.322Z,94.41
2018-08-13T01:24:58.365Z,94.03
2018-08-13T01:25:58.400Z,94.22
2018-08-13T01:26:58.441Z,94.03
2018-08-13T01:27:58.475Z,93.74
2018-08-13T01:28:58.517Z,93.65
2018-08-13T01:29:58.552Z,92.97
2018-08-13T01:30:58.590Z,92.79
2018-08-13T01:31:58.637Z,92.50
2018-08-13T01:32:58.768Z,92.69
2018-08-13T01:33:58.706Z,92.31
2018-08-13T01:34:58.744Z,92.69
2018-08-13T01:35:58.781Z,92.31
2018-08-13T01:36:58.820Z,91.93
2018-08-13T01:37:58.858Z,91.26
2018-08-13T01:38:58.897Z,91.93
2018-08-13T01:39:58.942Z,91.93
2018-08-13T01:40:58.973Z,91.21
2018-08-13T01:41:59.013Z,91.21
2018-08-13T01:42:59.050Z,90.64
2018-08-13T01:43:59.090Z,90.45
2018-08-13T01:44:59.126Z,90.17
2018-08-13T01:45:59.165Z,90.26
2018-08-13T01:46:59.203Z,89.59
2018-08-13T01:47:59.243Z,90.07
2018-08-13T01:48:59.280Z,90.45
2018-08-13T01:49:59.319Z,90.64
2018-08-13T01:50:59.357Z,90.45
2018-08-13T01:51:59.394Z,89.97
2018-08-13T01:52:59.431Z,90.26
2018-08-13T01:53:59.469Z,89.69
2018-08-13T01:54:59.507Z,89.02
2018-08-13T01:55:59.547Z,89.40
2018-08-13T01:56:59.584Z,90.55
2018-08-13T01:57:59.622Z,91.31
2018-08-13T01:58:59.661Z,90.64
2018-08-13T01:59:59.697Z,91.21
2018-08-13T02:00:59.738Z,90.83
2018-08-13T02:01:59.776Z,90.26
2018-08-13T02:02:59.814Z,90.26
2018-08-13T02:03:59.851Z,90.73
2018-08-13T02:04:59.890Z,90.64
2018-08-13T02:05:59.927Z,89.50
2018-08-13T02:06:59.965Z,90.26
2018-08-13T02:08:00.009Z,89.50
2018-08-13T02:09:00.042Z,89.12
2018-08-13T02:10:00.081Z,89.02
2018-08-13T02:11:00.119Z,89.31
2018-08-13T02:12:00.155Z,88.73
2018-08-13T02:13:00.193Z,88.26
2018-08-13T02:14:00.233Z,87.02
2018-08-13T02:15:00.270Z,87.59
2018-08-13T02:16:00.307Z,88.26
2018-08-13T02:17:00.349Z,89.21
2018-08-13T02:18:00.386Z,88.92
2018-08-13T02:19:00.424Z,89.02
2018-08-13T02:20:00.463Z,89.12
2018-08-13T02:21:00.500Z,89.69
2018-08-13T02:22:00.539Z,88.16
2018-08-13T02:23:00.578Z,88.07
2018-08-13T02:24:00.618Z,88.45
2018-08-13T02:25:00.654Z,88.83
2018-08-13T02:26:00.691Z,89.02
2018-08-13T02:27:00.782Z,88.73
2018-08-13T02:28:00.768Z,89.69
2018-08-13T02:29:00.805Z,89.02
2018-08-13T02:30:00.843Z,88.73
2018-08-13T02:31:00.885Z,88.35
2018-08-13T02:32:00.928Z,88.45
2018-08-13T02:33:00.957Z,88.07
2018-08-13T02:34:00.996Z,88.07
2018-08-13T02:35:01.035Z,88.07
2018-08-13T02:36:01.072Z,87.49
2018-08-13T02:37:01.111Z,87.11
2018-08-13T02:38:01.149Z,86.35
2018-08-13T02:39:01.205Z,86.88
2018-08-13T02:40:01.224Z,85.83
2018-08-13T02:41:01.263Z,85.83
2018-08-13T02:42:01.301Z,85.97
2018-08-13T02:43:01.342Z,85.73
2018-08-13T02:44:01.384Z,85.64
2018-08-13T02:45:01.415Z,85.45
2018-08-13T02:46:01.460Z,85.16
2018-08-13T02:47:01.489Z,84.78
2018-08-13T02:48:01.528Z,84.59
2018-08-13T02:49:01.565Z,85.16
2018-08-13T02:50:01.612Z,84.78
2018-08-13T02:51:01.643Z,84.40
2018-08-13T02:52:01.681Z,84.78
2018-08-13T02:53:01.768Z,84.49
2018-08-13T02:54:01.756Z,84.01
2018-08-13T02:55:01.795Z,83.73
2018-08-13T02:56:01.830Z,83.44
2018-08-13T02:57:01.869Z,83.64
2018-08-13T02:58:01.961Z,83.44
2018-08-13T02:59:01.952Z,82.97
2018-08-13T03:00:01.987Z,82.49
2018-08-13T03:01:02.021Z,82.49
2018-08-13T03:02:02.061Z,82.20
2018-08-13T03:03:02.099Z,82.87
2018-08-13T03:04:02.135Z,83.06
2018-08-13T03:05:02.173Z,82.59
2018-08-13T03:06:02.219Z,82.97
2018-08-13T03:07:02.249Z,83.54
2018-08-13T03:08:02.285Z,83.73
2018-08-13T03:09:02.323Z,83.64
2018-08-13T03:10:02.368Z,83.25
2018-08-13T03:11:02.398Z,83.16
2018-08-13T03:12:02.440Z,82.87
2018-08-13T03:13:02.485Z,83.06
2018-08-13T03:14:02.516Z,83.64
2018-08-13T03:15:02.551Z,83.54
2018-08-13T03:16:02.590Z,83.73
2018-08-13T03:17:02.625Z,83.83
2018-08-13T03:18:02.666Z,84.40
2018-08-13T03:19:02.702Z,84.49
2018-08-13T03:20:02.740Z,84.59
2018-08-13T03:21:02.779Z,85.25
2018-08-13T03:22:02.815Z,85.16
2018-08-13T03:23:02.857Z,85.45
2018-08-13T03:24:02.895Z,86.49
2018-08-13T03:25:02.930Z,86.49
2018-08-13T03:26:02.969Z,86.30
2018-08-13T03:27:03.008Z,85.73
2018-08-13T03:28:03.042Z,85.64
2018-08-13T03:29:03.084Z,85.73
2018-08-13T03:30:03.128Z,85.64
2018-08-13T03:31:03.163Z,84.49
2018-08-13T03:32:03.196Z,84.59
2018-08-13T03:33:03.232Z,84.20
2018-08-13T03:34:03.271Z,84.11
2018-08-13T03:35:03.309Z,84.20
2018-08-13T03:36:03.346Z,83.25
2018-08-13T03:37:03.385Z,82.40
2018-08-13T03:38:03.421Z,83.06
2018-08-13T03:39:03.460Z,82.11
2018-08-13T03:40:03.505Z,81.92
2018-08-13T03:41:03.536Z,82.11
2018-08-13T03:42:03.573Z,81.44
2018-08-13T03:43:03.612Z,81.25
2018-08-13T03:44:03.649Z,81.25
2018-08-13T03:45:03.686Z,81.15
2018-08-13T03:46:03.725Z,80.68
2018-08-13T03:47:03.862Z,80.11
2018-08-13T03:48:03.800Z,80.01
2018-08-13T03:49:03.838Z,80.01
2018-08-13T03:50:03.877Z,80.01
2018-08-13T03:51:03.915Z,79.63
2018-08-13T03:52:03.951Z,79.72
2018-08-13T03:53:03.988Z,80.01
2018-08-13T03:54:04.027Z,80.20
2018-08-13T03:55:04.066Z,79.35
2018-08-13T03:56:04.106Z,79.63
2018-08-13T03:57:04.142Z,79.15
2018-08-13T03:58:04.178Z,79.53
2018-08-13T03:59:04.218Z,80.01
2018-08-13T04:00:04.254Z,80.11
2018-08-13T04:01:04.292Z,79.63
2018-08-13T04:02:04.332Z,80.01
2018-08-13T04:03:04.367Z,79.82
2018-08-13T04:04:04.405Z,79.53
2018-08-13T04:05:04.443Z,81.44
2018-08-13T04:06:04.484Z,80.49
2018-08-13T04:07:04.517Z,81.54
2018-08-13T04:08:04.558Z,81.44
2018-08-13T04:09:04.626Z,82.49
2018-08-13T04:10:04.631Z,82.30
2018-08-13T04:11:04.723Z,82.30
2018-08-13T04:12:04.706Z,82.78
2018-08-13T04:13:04.745Z,82.30
2018-08-13T04:14:04.781Z,82.20
2018-08-13T04:15:04.820Z,82.01
2018-08-13T04:16:04.865Z,81.92
2018-08-13T04:17:04.895Z,81.54
2018-08-13T04:18:04.934Z,81.73
2018-08-13T04:19:04.971Z,80.77
2018-08-13T04:20:05.017Z,80.58
2018-08-13T04:21:05.047Z,81.15
2018-08-13T04:22:05.085Z,81.25
2018-08-13T04:23:05.122Z,81.35
2018-08-13T04:24:05.160Z,80.96
2018-08-13T04:25:05.204Z,80.20
2018-08-13T04:26:05.236Z,80.01
2018-08-13T04:27:05.273Z,80.11
2018-08-13T04:28:05.311Z,80.20
2018-08-13T04:29:05.347Z,80.11
2018-08-13T04:30:05.388Z,79.82
2018-08-13T04:31:05.435Z,80.11
2018-08-13T04:32:05.462Z,80.01
2018-08-13T04:33:05.502Z,79.91
2018-08-13T04:34:05.539Z,80.01
2018-08-13T04:35:05.577Z,80.01
2018-08-13T04:36:05.614Z,80.01
2018-08-13T04:37:05.653Z,79.82
2018-08-13T04:38:05.689Z,79.91
2018-08-13T04:39:05.729Z,80.77
2018-08-13T04:40:06.050Z,82.20
2018-08-13T04:41:05.804Z,81.92
2018-08-13T04:42:05.841Z,81.82
2018-08-13T04:43:05.880Z,82.40
2018-08-13T04:44:05.921Z,82.11
2018-08-13T04:45:05.953Z,82.68
2018-08-13T04:46:05.997Z,82.97
2018-08-13T04:47:06.029Z,82.01
2018-08-13T04:48:06.142Z,82.87
2018-08-13T04:49:06.111Z,82.49
2018-08-13T04:50:06.143Z,83.35
2018-08-13T04:51:06.182Z,83.06
2018-08-13T04:52:06.274Z,83.16
2018-08-13T04:53:06.258Z,82.59
2018-08-13T04:54:06.304Z,83.25
2018-08-13T04:55:06.334Z,84.59
2018-08-13T04:56:06.372Z,84.20
2018-08-13T04:57:06.410Z,84.49
2018-08-13T04:58:06.447Z,84.49
2018-08-13T04:59:06.486Z,84.11
2018-08-13T05:00:06.531Z,84.88
2018-08-13T05:01:06.564Z,84.88
2018-08-13T05:02:06.601Z,84.59
2018-08-13T05:03:06.654Z,84.63
2018-08-13T05:04:06.675Z,84.82
2018-08-13T05:05:06.713Z,84.30
2018-08-13T05:06:06.752Z,84.63
2018-08-13T05:07:06.799Z,85.30
2018-08-13T05:08:06.827Z,84.53
2018-08-13T05:09:06.879Z,84.72
2018-08-13T05:10:06.904Z,85.58
2018-08-13T05:11:06.942Z,86.35
2018-08-13T05:12:06.987Z,85.97
2018-08-13T05:13:07.017Z,86.06
2018-08-13T05:14:07.063Z,86.06
2018-08-13T05:15:07.103Z,86.54
2018-08-13T05:16:07.152Z,86.35
2018-08-13T05:17:07.172Z,86.54
2018-08-13T05:18:07.209Z,86.44
2018-08-13T05:19:07.316Z,86.63
2018-08-13T05:20:07.285Z,86.25
2018-08-13T05:21:07.359Z,86.73
2018-08-13T05:22:07.362Z,86.82
2018-08-13T05:23:07.398Z,86.82
2018-08-13T05:24:07.440Z,88.07
2018-08-13T05:25:07.481Z,88.07
2018-08-13T05:26:07.520Z,87.73
2018-08-13T05:27:07.554Z,88.40
2018-08-13T05:28:07.589Z,89.16
2018-08-13T05:29:07.630Z,89.06
2018-08-13T05:30:07.774Z,89.35
2018-08-13T05:31:07.709Z,89.83
2018-08-13T05:32:07.761Z,90.02
2018-08-13T05:33:07.786Z,90.59
2018-08-13T05:34:07.821Z,90.88
2018-08-13T05:35:07.861Z,90.69
2018-08-13T05:36:07.900Z,90.92
2018-08-13T05:37:07.939Z,91.59
2018-08-13T05:38:08.003Z,91.59
2018-08-13T05:39:08.013Z,92.45
2018-08-13T05:40:08.081Z,93.02
2018-08-13T05:41:08.090Z,92.74
2018-08-13T05:42:08.125Z,92.64
2018-08-13T05:43:08.167Z,93.88
2018-08-13T05:44:08.203Z,94.46
2018-08-13T05:45:08.241Z,94.65
2018-08-13T05:46:08.282Z,95.27
2018-08-13T05:47:08.319Z,95.46
2018-08-13T05:48:08.356Z,95.46
2018-08-13T05:49:08.395Z,95.36
2018-08-13T05:50:08.432Z,96.13
2018-08-13T05:51:08.475Z,96.32
2018-08-13T05:52:08.520Z,96.03
2018-08-13T05:53:08.571Z,96.27
2018-08-13T05:54:08.591Z,95.98
2018-08-13T05:55:08.728Z,96.94
2018-08-13T05:56:08.671Z,96.47
2018-08-13T05:57:08.711Z,97.13
2018-08-13T05:58:08.747Z,96.75
2018-08-13T05:59:08.781Z,97.52
2018-08-13T06:00:08.821Z,97.99
2018-08-13T06:01:08.861Z,97.23
2018-08-13T06:02:08.947Z,98.09
2018-08-13T06:03:08.989Z,98.09
2018-08-13T06:04:08.978Z,98.28
2018-08-13T06:05:09.015Z,98.38
2018-08-13T06:06:09.055Z,98.61
2018-08-13T06:07:09.097Z,98.61
2018-08-13T06:08:09.131Z,99.19
2018-08-13T06:09:09.173Z,99.19
2018-08-13T06:10:09.209Z,99.00
2018-08-13T06:11:09.260Z,99.67
2018-08-13T06:12:09.289Z,99.99
2018-08-13T06:13:09.326Z,99.99
2018-08-13T06:14:09.366Z,99.99
2018-08-13T06:15:09.407Z,99.99
2018-08-13T06:16:09.444Z,99.99
2018-08-13T06:17:09.482Z,99.99
2018-08-13T06:18:09.609Z,99.99
2018-08-13T06:19:09.560Z,99.99
2018-08-13T06:20:09.609Z,99.72
2018-08-13T06:21:09.640Z,99.77
2018-08-13T06:22:09.678Z,99.99
2018-08-13T06:23:09.718Z,99.99
2018-08-13T06:24:09.765Z,99.99
2018-08-13T06:25:09.795Z,99.99
2018-08-13T06:26:09.834Z,99.99
2018-08-13T06:27:09.874Z,99.99
2018-08-13T06:28:09.931Z,99.99
2018-08-13T06:29:09.952Z,99.99
2018-08-13T06:30:10.027Z,99.99
2018-08-13T06:31:10.037Z,99.99
2018-08-13T06:32:10.074Z,99.99
2018-08-13T06:33:10.110Z,99.99
2018-08-13T06:34:10.154Z,99.99
2018-08-13T06:35:10.202Z,99.91
2018-08-13T06:36:10.234Z,99.53
2018-08-13T06:37:10.357Z,98.62
2018-08-13T06:38:10.318Z,99.01
2018-08-13T06:39:10.350Z,98.72
2018-08-13T06:40:10.387Z,97.42
2018-08-13T06:41:10.428Z,97.33
2018-08-13T06:42:10.467Z,96.66
2018-08-13T06:43:10.506Z,95.79
2018-08-13T06:44:10.545Z,95.07
2018-08-13T06:45:10.585Z,95.07
2018-08-13T06:46:10.629Z,94.11
2018-08-13T06:47:10.732Z,94.88
2018-08-13T06:49:10.746Z,94.49
2018-08-13T06:50:10.787Z,94.11
2018-08-13T06:51:10.827Z,93.82
2018-08-13T06:52:10.869Z,94.31
2018-08-13T06:53:10.912Z,94.78
2018-08-13T06:54:10.949Z,93.44
2018-08-13T06:55:10.989Z,92.62
2018-08-13T06:56:11.032Z,92.62
2018-08-13T06:57:11.068Z,91.47
2018-08-13T06:58:11.112Z,91.47
2018-08-13T06:59:11.151Z,92.05
2018-08-13T07:00:11.220Z,90.36
2018-08-13T07:01:11.235Z,90.65
2018-08-13T07:02:11.274Z,90.75
2018-08-13T07:03:11.321Z,89.59
2018-08-13T07:04:11.354Z,89.40
2018-08-13T07:05:11.398Z,88.82
2018-08-13T07:06:11.487Z,88.73
2018-08-13T07:07:11.475Z,88.63
2018-08-13T07:08:11.521Z,88.63
2018-08-13T07:09:11.563Z,89.21
2018-08-13T07:10:11.601Z,88.92
2018-08-13T07:11:11.640Z,88.53
2018-08-13T07:12:11.682Z,89.30
2018-08-13T07:13:11.723Z,90.36
2018-08-13T07:14:11.768Z,91.42
2018-08-13T07:15:11.805Z,91.03
2018-08-13T07:16:11.844Z,91.22
2018-08-13T07:17:11.886Z,91.61
2018-08-13T07:18:11.931Z,91.13
2018-08-13T07:19:11.968Z,87.57
2018-08-13T07:20:12.011Z,86.52
2018-08-13T07:21:12.052Z,87.76
2018-08-13T07:22:12.307Z,87.57
2018-08-13T07:23:12.134Z,88.63
2018-08-13T07:24:12.173Z,88.44
2018-08-13T07:25:12.215Z,87.96
2018-08-13T07:26:12.255Z,88.44
2018-08-13T07:27:12.298Z,87.86
2018-08-13T07:28:12.371Z,88.06
2018-08-13T07:29:12.380Z,88.44
2018-08-13T07:30:12.433Z,88.53
2018-08-13T07:31:12.465Z,89.11
2018-08-13T07:32:12.506Z,89.88
2018-08-13T07:33:12.545Z,89.50
2018-08-13T07:34:12.588Z,90.12
2018-08-13T07:35:12.628Z,91.66
2018-08-13T07:36:12.670Z,90.12
2018-08-13T07:37:12.709Z,90.60
2018-08-13T07:38:12.762Z,90.12
2018-08-13T07:39:12.809Z,90.12
2018-08-13T07:40:12.833Z,91.28
2018-08-13T07:41:12.873Z,91.75
2018-08-13T07:42:12.917Z,91.75
2018-08-13T07:43:12.956Z,93.92
2018-08-13T07:44:12.999Z,95.26
2018-08-13T07:45:13.045Z,96.03
2018-08-13T07:46:13.121Z,95.45
2018-08-13T07:47:13.121Z,97.09
2018-08-13T07:48:13.161Z,97.38
2018-08-13T07:49:13.205Z,98.24
2018-08-13T07:50:13.255Z,99.20
2018-08-13T07:51:13.286Z,99.99
2018-08-13T07:52:13.329Z,99.99
2018-08-13T07:53:13.368Z,99.99
2018-08-13T07:54:13.417Z,99.99
2018-08-13T07:55:13.449Z,99.99
2018-08-13T07:56:13.490Z,99.99
2018-08-13T07:57:13.530Z,99.99
2018-08-13T07:58:13.577Z,99.99
2018-08-13T07:59:13.615Z,99.99
2018-08-13T08:00:13.653Z,99.99
2018-08-13T08:01:13.694Z,99.99
2018-08-13T08:02:13.736Z,99.99
2018-08-13T08:03:13.777Z,98.43
2018-08-13T08:04:13.823Z,99.54
2018-08-13T08:05:13.865Z,95.60
2018-08-13T08:06:13.901Z,96.89
2018-08-13T08:07:13.948Z,95.26
2018-08-13T08:08:13.979Z,96.70
2018-08-13T08:09:14.066Z,97.76
2018-08-13T08:10:14.062Z,94.98
2018-08-13T08:11:14.102Z,97.61
2018-08-13T08:12:14.144Z,97.47
2018-08-13T08:13:14.183Z,96.80
2018-08-13T08:14:14.222Z,94.98
2018-08-13T08:15:14.264Z,95.84
2018-08-13T08:16:14.306Z,95.94
2018-08-13T08:17:14.355Z,96.51
2018-08-13T08:18:14.387Z,95.94
2018-08-13T08:19:14.428Z,96.13
2018-08-13T08:20:14.470Z,96.03
2018-08-13T08:21:14.541Z,95.45
2018-08-13T08:22:14.549Z,94.21
2018-08-13T08:23:14.591Z,91.90
2018-08-13T08:24:14.633Z,92.67
2018-08-13T08:25:14.671Z,91.23
2018-08-13T08:26:14.713Z,90.94
2018-08-13T08:27:14.753Z,85.47
2018-08-13T08:28:14.794Z,82.82
2018-08-13T08:29:14.868Z,79.71
2018-08-13T08:30:14.877Z,84.07
2018-08-13T08:31:14.918Z,79.71
2018-08-13T08:32:14.957Z,79.17
2018-08-13T08:33:15.000Z,77.53
2018-08-13T08:34:15.040Z,76.09
2018-08-13T08:35:15.080Z,73.11
2018-08-13T08:36:15.119Z,75.23
2018-08-13T08:37:15.164Z,76.29
2018-08-13T08:38:15.207Z,74.55
2018-08-13T08:39:15.245Z,73.02
2018-08-13T08:40:15.282Z,74.17
2018-08-13T08:41:15.330Z,76.86
2018-08-13T08:42:15.366Z,74.79
2018-08-13T08:43:15.405Z,72.48
2018-08-13T08:44:15.448Z,75.46
2018-08-13T08:45:15.487Z,77.00
2018-08-13T08:46:15.532Z,74.69
2018-08-13T08:47:15.571Z,74.98
2018-08-13T08:48:15.610Z,74.11
2018-08-13T08:49:15.651Z,76.52
2018-08-13T08:50:15.744Z,68.83
2018-08-13T08:51:15.735Z,68.73
2018-08-13T08:52:15.777Z,69.40
2018-08-13T08:53:15.821Z,72.29
2018-08-13T08:54:15.860Z,69.40
2018-08-13T08:55:15.899Z,73.57
2018-08-13T08:56:15.939Z,72.52
2018-08-13T08:57:15.981Z,75.69
2018-08-13T08:58:16.021Z,78.19
2018-08-13T08:59:16.063Z,78.86
2018-08-13T09:00:16.109Z,75.05
2018-08-13T09:01:16.146Z,72.65
2018-08-13T09:02:16.198Z,72.26
2018-08-13T09:03:16.233Z,72.36
2018-08-13T09:04:16.271Z,72.65
2018-08-13T09:05:16.314Z,74.09
2018-08-13T09:06:16.353Z,74.86
2018-08-13T09:07:16.397Z,76.40
2018-08-13T09:08:16.436Z,77.40
2018-08-13T09:09:16.477Z,76.34
2018-08-13T09:10:16.527Z,75.96
2018-08-13T09:11:16.562Z,78.36
2018-08-13T09:12:16.612Z,76.34
2018-08-13T09:13:16.645Z,76.82
2018-08-13T09:14:16.774Z,77.78
2018-08-13T09:15:16.727Z,77.88
2018-08-13T09:16:16.770Z,78.56
2018-08-13T09:17:16.809Z,78.94
2018-08-13T09:18:16.859Z,77.31
2018-08-13T09:19:16.895Z,75.96
2018-08-13T09:20:16.936Z,76.25
2018-08-13T09:21:16.976Z,80.10
2018-08-13T09:22:17.020Z,78.94
2018-08-13T09:23:17.062Z,77.11
2018-08-13T09:24:17.103Z,77.59
2018-08-13T09:25:17.143Z,77.11
2018-08-13T09:26:17.189Z,76.53
2018-08-13T09:27:17.236Z,76.06
2018-08-13T09:28:17.268Z,76.25
2018-08-13T09:29:17.320Z,75.96
2018-08-13T09:30:17.355Z,74.74
2018-08-13T09:31:17.398Z,75.32
2018-08-13T09:32:17.438Z,75.90
2018-08-13T09:33:17.479Z,77.25
2018-08-13T09:34:17.523Z,75.71
2018-08-13T09:35:17.564Z,77.73
2018-08-13T09:36:17.604Z,75.61
2018-08-13T09:37:17.655Z,78.02
2018-08-13T09:38:17.689Z,76.18
2018-08-13T09:39:17.732Z,78.17
2018-08-13T09:40:17.773Z,76.73
2018-08-13T09:41:17.819Z,75.48
2018-08-13T09:42:17.858Z,72.97
2018-08-13T09:43:17.900Z,72.59
2018-08-13T09:44:17.940Z,71.24
2018-08-13T09:45:17.983Z,69.41
2018-08-13T09:46:18.030Z,69.99
2018-08-13T09:47:18.068Z,67.58
2018-08-13T09:48:18.110Z,72.59
2018-08-13T09:49:18.158Z,67.87
2018-08-13T09:50:18.196Z,67.68
2018-08-13T09:51:18.236Z,70.37
2018-08-13T09:52:18.277Z,69.18
2018-08-13T09:53:18.317Z,69.28
2018-08-13T09:54:18.361Z,67.74
2018-08-13T09:55:18.465Z,66.88
2018-08-13T09:56:18.444Z,66.01
2018-08-13T09:57:18.486Z,66.10
2018-08-13T09:58:18.530Z,64.95
2018-08-13T09:59:18.575Z,63.02
2018-08-13T10:00:18.675Z,63.89
2018-08-13T10:01:18.655Z,64.76
2018-08-13T10:02:18.697Z,65.14
2018-08-13T10:03:18.750Z,64.76
2018-08-13T10:04:18.780Z,64.18
2018-08-13T10:05:18.823Z,67.65
2018-08-13T10:06:18.865Z,68.99
2018-08-13T10:07:18.911Z,68.93
2018-08-13T10:08:18.948Z,67.29
2018-08-13T10:09:19.050Z,70.66
2018-08-13T10:10:19.031Z,71.81
2018-08-13T10:11:19.074Z,69.60
2018-08-13T10:12:19.115Z,71.34
2018-08-13T10:13:19.159Z,69.18
2018-08-13T10:14:19.198Z,68.99
2018-08-13T10:15:19.244Z,71.59
2018-08-13T10:16:19.282Z,69.09
2018-08-13T10:17:19.324Z,69.95
2018-08-13T10:18:19.366Z,66.20
2018-08-13T10:19:19.417Z,66.01
2018-08-13T10:20:19.466Z,67.80
2018-08-13T10:21:19.492Z,65.01
2018-08-13T10:22:19.536Z,68.09
2018-08-13T10:23:19.580Z,66.74
2018-08-13T10:24:19.615Z,65.20
2018-08-13T10:25:19.659Z,63.48
2018-08-13T10:26:19.701Z,62.71
2018-08-13T10:27:19.742Z,62.13
2018-08-13T10:28:19.783Z,61.65
2018-08-13T10:29:19.828Z,64.53
2018-08-13T10:30:19.869Z,63.95
2018-08-13T10:31:19.912Z,65.30
2018-08-13T10:32:19.957Z,66.07
2018-08-13T10:33:19.995Z,63.41
2018-08-13T10:34:20.036Z,64.76
2018-08-13T10:35:20.079Z,65.72
2018-08-13T10:36:20.126Z,66.01
2018-08-13T10:37:20.174Z,64.76
2018-08-13T10:38:20.199Z,66.01
2018-08-13T10:39:20.242Z,67.83
2018-08-13T10:40:20.283Z,65.05
2018-08-13T10:41:20.339Z,67.65
2018-08-13T10:42:20.369Z,65.43
2018-08-13T10:43:20.416Z,64.76
2018-08-13T10:44:20.450Z,65.81
2018-08-13T10:45:20.513Z,63.51
2018-08-13T10:46:20.535Z,63.31
2018-08-13T10:47:20.578Z,63.02
2018-08-13T10:48:20.644Z,61.97
2018-08-13T10:49:20.660Z,62.16
2018-08-13T10:50:20.706Z,59.56
2018-08-13T10:51:20.742Z,60.52
2018-08-13T10:52:20.784Z,61.29
2018-08-13T10:53:20.826Z,61.49
2018-08-13T10:54:20.872Z,60.91
2018-08-13T10:55:20.911Z,62.26
2018-08-13T10:56:20.953Z,59.17
2018-08-13T10:57:20.992Z,57.73
2018-08-13T10:58:21.036Z,58.60
2018-08-13T10:59:21.078Z,56.48
2018-08-13T11:00:21.117Z,62.64
2018-08-13T11:01:21.175Z,63.06
2018-08-13T11:02:21.202Z,62.19
2018-08-13T11:03:21.243Z,62.06
2018-08-13T11:04:21.287Z,61.68
2018-08-13T11:05:21.327Z,62.64
2018-08-13T11:06:21.367Z,63.51
2018-08-13T11:07:21.415Z,60.72
2018-08-13T11:08:21.453Z,62.74
2018-08-13T11:09:21.493Z,60.33
2018-08-13T11:10:21.543Z,61.29
2018-08-13T11:11:21.576Z,60.33
2018-08-13T11:12:21.617Z,61.29
2018-08-13T11:13:21.685Z,61.04
2018-08-13T11:14:21.703Z,62.57
2018-08-13T11:15:21.743Z,61.71
2018-08-13T11:16:21.785Z,61.45
2018-08-13T11:17:21.827Z,62.03
2018-08-13T11:18:21.870Z,62.03
2018-08-13T11:19:21.913Z,63.38
2018-08-13T11:20:21.962Z,67.71
2018-08-13T11:21:21.995Z,65.01
2018-08-13T11:22:22.045Z,64.28
2018-08-13T11:23:22.081Z,65.14
2018-08-13T11:24:22.120Z,65.63
2018-08-13T11:25:22.194Z,68.90
2018-08-13T11:26:22.206Z,68.80
2018-08-13T11:27:22.246Z,70.00
2018-08-13T11:28:22.387Z,74.62
2018-08-13T11:29:22.337Z,76.75
2018-08-13T11:30:22.373Z,79.21
2018-08-13T11:31:22.418Z,74.14
2018-08-13T11:32:22.457Z,77.81
2018-08-13T11:33:22.505Z,74.62
2018-08-13T11:34:22.543Z,74.62
2018-08-13T11:35:22.585Z,70.76
2018-08-13T11:36:22.639Z,72.50
2018-08-13T11:37:22.670Z,76.36
2018-08-13T11:38:22.712Z,76.07
2018-08-13T11:39:22.756Z,76.45
2018-08-13T11:40:22.804Z,75.40
2018-08-13T11:41:22.839Z,77.23
2018-08-13T11:42:22.885Z,76.65
2018-08-13T11:43:22.927Z,76.30
2018-08-13T11:44:22.966Z,76.98
2018-08-13T11:45:23.018Z,79.87
2018-08-13T11:46:23.097Z,76.78
2018-08-13T11:47:23.095Z,79.77
2018-08-13T11:48:23.137Z,78.33
2018-08-13T11:49:23.188Z,78.67
2018-08-13T11:50:23.229Z,76.07
2018-08-13T11:51:23.268Z,76.36
2018-08-13T11:52:23.376Z,74.95
2018-08-13T11:53:23.351Z,77.23
2018-08-13T11:54:23.400Z,75.68
2018-08-13T11:55:23.440Z,75.01
2018-08-13T11:56:23.533Z,73.66
2018-08-13T11:57:23.523Z,72.31
2018-08-13T11:58:23.568Z,74.82
2018-08-13T11:59:23.621Z,75.40
2018-08-13T12:00:23.652Z,76.75
2018-08-13T12:01:23.752Z,76.40
2018-08-13T12:02:23.734Z,76.78
2018-08-13T12:03:23.788Z,77.55
2018-08-13T12:04:23.822Z,77.94
2018-08-13T12:05:23.863Z,77.75
2018-08-13T12:06:23.905Z,77.84
2018-08-13T12:07:23.958Z,78.66
2018-08-13T12:08:24.044Z,78.85
2018-08-13T12:09:24.036Z,78.08
2018-08-13T12:10:24.079Z,79.04
2018-08-13T12:11:24.121Z,77.65
2018-08-13T12:12:24.163Z,76.98
2018-08-13T12:13:24.206Z,76.40
2018-08-13T12:14:24.252Z,77.65
2018-08-13T12:15:24.292Z,77.75
2018-08-13T12:16:24.333Z,78.03
2018-08-13T12:17:24.376Z,74.76
2018-08-13T12:18:24.422Z,75.82
2018-08-13T12:19:24.554Z,76.30
2018-08-13T12:20:24.528Z,78.94
2018-08-13T12:21:24.569Z,79.33
2018-08-13T12:22:24.691Z,79.14
2018-08-13T12:23:24.674Z,79.27
2018-08-13T12:24:24.725Z,82.36
2018-08-13T12:25:24.725Z,83.72
2018-08-13T12:26:24.840Z,82.65
2018-08-13T12:27:24.815Z,82.65
2018-08-13T12:28:24.853Z,81.98
2018-08-13T12:29:24.892Z,83.52
2018-08-13T12:30:24.955Z,82.56
2018-08-13T12:31:24.983Z,86.22
2018-08-13T12:32:25.028Z,85.01
2018-08-13T12:33:25.070Z,85.59
2018-08-13T12:34:25.137Z,88.59
2018-08-13T12:35:25.152Z,89.84
2018-08-13T12:36:25.199Z,87.91
2018-08-13T12:37:25.237Z,88.29
2018-08-13T12:38:25.432Z,86.65
2018-08-13T12:39:25.334Z,86.94
2018-08-13T12:40:25.368Z,86.56
2018-08-13T12:41:25.410Z,87.52
2018-08-13T12:42:25.459Z,88.15
2018-08-13T12:43:25.497Z,90.08
2018-08-13T12:44:25.549Z,92.11
2018-08-13T12:45:25.584Z,89.45
2018-08-13T12:46:25.630Z,92.40
2018-08-13T12:47:25.672Z,94.52
2018-08-13T12:48:25.722Z,92.97
2018-08-13T12:49:25.759Z,98.15
2018-08-13T12:50:25.805Z,96.41
2018-08-13T12:51:25.848Z,95.39
2018-08-13T12:52:25.891Z,97.71
2018-08-13T12:53:25.944Z,96.55
2018-08-13T12:54:25.984Z,99.36